Cherokee, Oklahoma
Current Conditions -  °F | °C
As of 4:30 PM on Tuesday 21 Oct 2014 (Local Time) from KAVK Reporting Station
Few Clouds Few Clouds  
Wind Chill: 82°   Ceiling: Unl
Heat Index: 82°   Visibility: 10mi
Dew Point: 54°   Wind: 16mph
Humidity: 37%   Direction: 190°S
Pressure: 30"   Gusts: NA
Location:  36.75°N, 98.36°W
Report Text: KAVK 212130Z AUTO 19014KT 10SM FEW080 28/12 A3000 RMK AO2
Loading
Personal Weather Stations






























Interactive Weather Map
Tropical Storm Tracking
New forecast layout! Learn more

10-Day Weather Forecast

Advertisements
Track Severe Weather on mobile